sensor_id;sensor_type;location;lat;lon;timestamp;P1;durP1;ratioP1;P2;durP2;ratioP2
45909;SDS011;31622;55.416;37.840;2022-10-10T00:00:35;3.63;;;1.52;;
45909;SDS011;31622;55.416;37.840;2022-10-10T00:03:01;2.80;;;1.45;;
45909;SDS011;31622;55.416;37.840;2022-10-10T00:05:27;1.95;;;1.23;;
45909;SDS011;31622;55.416;37.840;2022-10-10T00:07:52;2.13;;;1.48;;
45909;SDS011;31622;55.416;37.840;2022-10-10T00:10:18;2.83;;;1.38;;
45909;SDS011;31622;55.416;37.840;2022-10-10T00:12:44;1.80;;;1.10;;
45909;SDS011;31622;55.416;37.840;2022-10-10T00:15:10;2.20;;;1.38;;
45909;SDS011;31622;55.416;37.840;2022-10-10T00:17:37;1.88;;;1.38;;
45909;SDS011;31622;55.416;37.840;2022-10-10T00:20:04;1.95;;;1.23;;
45909;SDS011;31622;55.416;37.840;2022-10-10T00:22:32;1.38;;;0.90;;
45909;SDS011;31622;55.416;37.840;2022-10-10T00:24:57;2.40;;;1.20;;
45909;SDS011;31622;55.416;37.840;2022-10-10T00:27:23;1.90;;;1.23;;
45909;SDS011;31622;55.416;37.840;2022-10-10T00:29:49;1.85;;;1.10;;
45909;SDS011;31622;55.416;37.840;2022-10-10T00:32:14;1.80;;;1.38;;
45909;SDS011;31622;55.416;37.840;2022-10-10T00:34:40;1.55;;;1.13;;
45909;SDS011;31622;55.416;37.840;2022-10-10T00:37:06;2.10;;;1.23;;
45909;SDS011;31622;55.416;37.840;2022-10-10T00:39:31;2.30;;;1.17;;
45909;SDS011;31622;55.416;37.840;2022-10-10T00:41:57;2.72;;;1.00;;
45909;SDS011;31622;55.416;37.840;2022-10-10T00:44:22;1.70;;;1.00;;
45909;SDS011;31622;55.416;37.840;2022-10-10T00:46:48;2.42;;;1.25;;
45909;SDS011;31622;55.416;37.840;2022-10-10T00:49:16;1.63;;;1.00;;
45909;SDS011;31622;55.416;37.840;2022-10-10T00:51:44;1.55;;;1.05;;
45909;SDS011;31622;55.416;37.840;2022-10-10T00:54:11;5.35;;;1.42;;
45909;SDS011;31622;55.416;37.840;2022-10-10T00:56:40;4.70;;;0.90;;
45909;SDS011;31622;55.416;37.840;2022-10-10T00:59:09;3.75;;;1.08;;
45909;SDS011;31622;55.416;37.840;2022-10-10T01:01:37;1.65;;;0.95;;
45909;SDS011;31622;55.416;37.840;2022-10-10T01:04:26;1.25;;;0.70;;
45909;SDS011;31622;55.416;37.840;2022-10-10T01:06:57;1.42;;;0.95;;
45909;SDS011;31622;55.416;37.840;2022-10-10T01:09:24;1.27;;;0.80;;
45909;SDS011;31622;55.416;37.840;2022-10-10T01:11:51;2.13;;;1.10;;
45909;SDS011;31622;55.416;37.840;2022-10-10T01:29:51;1.02;;;0.63;;
45909;SDS011;31622;55.416;37.840;2022-10-10T01:32:32;1.00;;;0.85;;
45909;SDS011;31622;55.416;37.840;2022-10-10T01:38:09;3.38;;;0.90;;
45909;SDS011;31622;55.416;37.840;2022-10-10T01:43:25;1.02;;;0.70;;
45909;SDS011;31622;55.416;37.840;2022-10-10T01:45:51;1.00;;;0.60;;
45909;SDS011;31622;55.416;37.840;2022-10-10T01:48:20;1.30;;;0.75;;
45909;SDS011;31622;55.416;37.840;2022-10-10T01:53:43;1.92;;;1.08;;
45909;SDS011;31622;55.416;37.840;2022-10-10T02:09:51;1.73;;;0.70;;
45909;SDS011;31622;55.416;37.840;2022-10-10T02:12:18;1.15;;;0.70;;
45909;SDS011;31622;55.416;37.840;2022-10-10T02:14:49;1.38;;;0.68;;
45909;SDS011;31622;55.416;37.840;2022-10-10T02:17:16;1.35;;;0.80;;
45909;SDS011;31622;55.416;37.840;2022-10-10T02:19:43;1.42;;;0.63;;
45909;SDS011;31622;55.416;37.840;2022-10-10T02:22:11;1.17;;;0.70;;
45909;SDS011;31622;55.416;37.840;2022-10-10T02:24:38;1.48;;;0.60;;
45909;SDS011;31622;55.416;37.840;2022-10-10T02:27:08;1.80;;;0.70;;
45909;SDS011;31622;55.416;37.840;2022-10-10T02:29:38;7.38;;;1.40;;
45909;SDS011;31622;55.416;37.840;2022-10-10T02:34:39;5.53;;;0.82;;
45909;SDS011;31622;55.416;37.840;2022-10-10T02:37:10;4.82;;;0.80;;
45909;SDS011;31622;55.416;37.840;2022-10-10T02:39:41;4.38;;;0.75;;
45909;SDS011;31622;55.416;37.840;2022-10-10T02:44:34;7.13;;;0.88;;
45909;SDS011;31622;55.416;37.840;2022-10-10T02:47:01;2.58;;;0.70;;
45909;SDS011;31622;55.416;37.840;2022-10-10T02:49:28;2.22;;;0.75;;
45909;SDS011;31622;55.416;37.840;2022-10-10T02:51:55;4.35;;;0.90;;
45909;SDS011;31622;55.416;37.840;2022-10-10T02:54:21;2.22;;;0.88;;
45909;SDS011;31622;55.416;37.840;2022-10-10T02:56:46;1.25;;;0.70;;
45909;SDS011;31622;55.416;37.840;2022-10-10T02:59:12;4.70;;;0.90;;
45909;SDS011;31622;55.416;37.840;2022-10-10T03:01:38;3.08;;;0.73;;
45909;SDS011;31622;55.416;37.840;2022-10-10T03:04:03;1.55;;;0.68;;
45909;SDS011;31622;55.416;37.840;2022-10-10T03:06:29;2.10;;;0.70;;
45909;SDS011;31622;55.416;37.840;2022-10-10T03:08:55;2.38;;;0.90;;
45909;SDS011;31622;55.416;37.840;2022-10-10T03:11:20;1.55;;;1.05;;
45909;SDS011;31622;55.416;37.840;2022-10-10T03:13:46;1.65;;;0.82;;
45909;SDS011;31622;55.416;37.840;2022-10-10T03:16:11;1.60;;;0.77;;
45909;SDS011;31622;55.416;37.840;2022-10-10T03:18:37;1.38;;;0.65;;
45909;SDS011;31622;55.416;37.840;2022-10-10T03:21:03;1.25;;;0.88;;
45909;SDS011;31622;55.416;37.840;2022-10-10T03:23:28;3.60;;;0.60;;
45909;SDS011;31622;55.416;37.840;2022-10-10T03:25:54;3.22;;;0.75;;
45909;SDS011;31622;55.416;37.840;2022-10-10T03:28:20;2.60;;;0.88;;
45909;SDS011;31622;55.416;37.840;2022-10-10T03:30:46;1.58;;;0.90;;
45909;SDS011;31622;55.416;37.840;2022-10-10T03:33:12;1.58;;;0.80;;
45909;SDS011;31622;55.416;37.840;2022-10-10T03:35:37;1.58;;;0.70;;
45909;SDS011;31622;55.416;37.840;2022-10-10T03:38:04;2.03;;;0.60;;
45909;SDS011;31622;55.416;37.840;2022-10-10T03:40:30;2.47;;;0.80;;
45909;SDS011;31622;55.416;37.840;2022-10-10T03:42:56;1.48;;;0.70;;
45909;SDS011;31622;55.416;37.840;2022-10-10T03:45:22;2.72;;;1.05;;
45909;SDS011;31622;55.416;37.840;2022-10-10T03:47:47;1.52;;;0.70;;
45909;SDS011;31622;55.416;37.840;2022-10-10T03:50:13;1.52;;;0.80;;
45909;SDS011;31622;55.416;37.840;2022-10-10T03:52:39;1.77;;;0.60;;
45909;SDS011;31622;55.416;37.840;2022-10-10T03:55:05;1.75;;;0.70;;
45909;SDS011;31622;55.416;37.840;2022-10-10T03:57:30;3.05;;;0.75;;
45909;SDS011;31622;55.416;37.840;2022-10-10T03:59:56;1.80;;;0.68;;
45909;SDS011;31622;55.416;37.840;2022-10-10T04:02:22;1.40;;;0.70;;
45909;SDS011;31622;55.416;37.840;2022-10-10T04:04:47;2.10;;;0.90;;
45909;SDS011;31622;55.416;37.840;2022-10-10T04:07:13;1.65;;;0.80;;
45909;SDS011;31622;55.416;37.840;2022-10-10T04:09:38;3.67;;;0.90;;
45909;SDS011;31622;55.416;37.840;2022-10-10T04:12:04;2.45;;;1.17;;
45909;SDS011;31622;55.416;37.840;2022-10-10T04:14:30;2.85;;;1.50;;
45909;SDS011;31622;55.416;37.840;2022-10-10T04:16:55;3.15;;;1.27;;
45909;SDS011;31622;55.416;37.840;2022-10-10T04:19:21;2.72;;;1.20;;
45909;SDS011;31622;55.416;37.840;2022-10-10T04:21:47;3.25;;;1.35;;
45909;SDS011;31622;55.416;37.840;2022-10-10T04:24:12;4.97;;;1.55;;
45909;SDS011;31622;55.416;37.840;2022-10-10T04:26:38;5.80;;;1.42;;
45909;SDS011;31622;55.416;37.840;2022-10-10T04:29:04;4.18;;;1.80;;
45909;SDS011;31622;55.416;37.840;2022-10-10T04:31:29;6.45;;;2.00;;
45909;SDS011;31622;55.416;37.840;2022-10-10T04:33:55;3.80;;;1.85;;
45909;SDS011;31622;55.416;37.840;2022-10-10T04:36:21;6.45;;;2.38;;
45909;SDS011;31622;55.416;37.840;2022-10-10T04:38:46;7.93;;;2.63;;
45909;SDS011;31622;55.416;37.840;2022-10-10T04:41:12;7.47;;;2.78;;
45909;SDS011;31622;55.416;37.840;2022-10-10T04:43:38;6.55;;;2.80;;
45909;SDS011;31622;55.416;37.840;2022-10-10T04:46:04;6.85;;;3.05;;
45909;SDS011;31622;55.416;37.840;2022-10-10T04:48:29;8.25;;;3.45;;
45909;SDS011;31622;55.416;37.840;2022-10-10T04:50:56;9.65;;;4.70;;
45909;SDS011;31622;55.416;37.840;2022-10-10T04:53:23;11.48;;;5.40;;
45909;SDS011;31622;55.416;37.840;2022-10-10T04:55:49;15.30;;;6.63;;
45909;SDS011;31622;55.416;37.840;2022-10-10T04:58:15;12.77;;;6.40;;
45909;SDS011;31622;55.416;37.840;2022-10-10T05:00:41;17.13;;;7.47;;
45909;SDS011;31622;55.416;37.840;2022-10-10T05:03:08;18.40;;;7.88;;
45909;SDS011;31622;55.416;37.840;2022-10-10T05:05:37;19.02;;;8.05;;
45909;SDS011;31622;55.416;37.840;2022-10-10T05:08:03;15.55;;;8.48;;
45909;SDS011;31622;55.416;37.840;2022-10-10T05:10:29;14.75;;;8.07;;
45909;SDS011;31622;55.416;37.840;2022-10-10T05:12:55;12.10;;;8.13;;
45909;SDS011;31622;55.416;37.840;2022-10-10T05:15:21;14.75;;;8.18;;
45909;SDS011;31622;55.416;37.840;2022-10-10T05:17:46;13.45;;;7.78;;
45909;SDS011;31622;55.416;37.840;2022-10-10T05:20:12;16.50;;;8.15;;
45909;SDS011;31622;55.416;37.840;2022-10-10T05:22:38;14.98;;;8.20;;
45909;SDS011;31622;55.416;37.840;2022-10-10T05:25:04;14.75;;;7.65;;
45909;SDS011;31622;55.416;37.840;2022-10-10T05:27:30;11.80;;;7.97;;
45909;SDS011;31622;55.416;37.840;2022-10-10T05:29:55;12.07;;;7.30;;
45909;SDS011;31622;55.416;37.840;2022-10-10T05:32:21;11.95;;;6.95;;
45909;SDS011;31622;55.416;37.840;2022-10-10T05:34:47;13.70;;;7.28;;
45909;SDS011;31622;55.416;37.840;2022-10-10T05:37:13;11.52;;;6.57;;
45909;SDS011;31622;55.416;37.840;2022-10-10T05:39:39;11.10;;;6.55;;
45909;SDS011;31622;55.416;37.840;2022-10-10T05:42:05;11.43;;;6.25;;
45909;SDS011;31622;55.416;37.840;2022-10-10T05:44:30;11.30;;;6.40;;
45909;SDS011;31622;55.416;37.840;2022-10-10T05:46:57;9.02;;;5.40;;
45909;SDS011;31622;55.416;37.840;2022-10-10T05:49:23;7.80;;;5.63;;
45909;SDS011;31622;55.416;37.840;2022-10-10T05:51:48;10.75;;;5.68;;
45909;SDS011;31622;55.416;37.840;2022-10-10T05:54:14;8.45;;;5.47;;
45909;SDS011;31622;55.416;37.840;2022-10-10T05:56:40;8.63;;;5.35;;
45909;SDS011;31622;55.416;37.840;2022-10-10T05:59:06;10.48;;;5.10;;
45909;SDS011;31622;55.416;37.840;2022-10-10T06:01:31;7.53;;;5.10;;
45909;SDS011;31622;55.416;37.840;2022-10-10T06:03:57;7.57;;;4.68;;
45909;SDS011;31622;55.416;37.840;2022-10-10T06:06:23;8.48;;;5.22;;
45909;SDS011;31622;55.416;37.840;2022-10-10T06:08:49;8.60;;;5.00;;
45909;SDS011;31622;55.416;37.840;2022-10-10T06:11:15;5.78;;;4.18;;
45909;SDS011;31622;55.416;37.840;2022-10-10T06:13:43;6.95;;;4.55;;
45909;SDS011;31622;55.416;37.840;2022-10-10T06:16:11;5.88;;;3.67;;
45909;SDS011;31622;55.416;37.840;2022-10-10T06:18:37;7.03;;;4.43;;
45909;SDS011;31622;55.416;37.840;2022-10-10T06:21:04;7.30;;;3.67;;
45909;SDS011;31622;55.416;37.840;2022-10-10T06:23:32;6.53;;;3.75;;
45909;SDS011;31622;55.416;37.840;2022-10-10T06:25:58;6.80;;;3.65;;
45909;SDS011;31622;55.416;37.840;2022-10-10T06:28:24;6.28;;;3.85;;
45909;SDS011;31622;55.416;37.840;2022-10-10T06:30:50;11.05;;;4.07;;
45909;SDS011;31622;55.416;37.840;2022-10-10T06:33:16;6.07;;;3.35;;
45909;SDS011;31622;55.416;37.840;2022-10-10T06:35:44;6.57;;;3.70;;
45909;SDS011;31622;55.416;37.840;2022-10-10T06:38:11;5.43;;;3.78;;
45909;SDS011;31622;55.416;37.840;2022-10-10T06:40:38;6.80;;;3.60;;
45909;SDS011;31622;55.416;37.840;2022-10-10T06:43:04;6.13;;;4.10;;
45909;SDS011;31622;55.416;37.840;2022-10-10T06:45:39;4.85;;;2.95;;
45909;SDS011;31622;55.416;37.840;2022-10-10T06:48:09;7.63;;;3.55;;
45909;SDS011;31622;55.416;37.840;2022-10-10T06:50:35;6.57;;;3.10;;
45909;SDS011;31622;55.416;37.840;2022-10-10T06:53:01;4.97;;;3.20;;
45909;SDS011;31622;55.416;37.840;2022-10-10T06:55:27;4.43;;;2.70;;
45909;SDS011;31622;55.416;37.840;2022-10-10T06:57:53;6.32;;;3.05;;
45909;SDS011;31622;55.416;37.840;2022-10-10T07:00:19;7.13;;;3.30;;
45909;SDS011;31622;55.416;37.840;2022-10-10T07:02:45;4.65;;;2.78;;
45909;SDS011;31622;55.416;37.840;2022-10-10T07:05:14;4.93;;;2.60;;
45909;SDS011;31622;55.416;37.840;2022-10-10T07:07:42;3.85;;;2.65;;
45909;SDS011;31622;55.416;37.840;2022-10-10T07:10:12;5.13;;;2.65;;
45909;SDS011;31622;55.416;37.840;2022-10-10T07:12:38;4.13;;;2.70;;
45909;SDS011;31622;55.416;37.840;2022-10-10T07:15:04;4.18;;;2.30;;
45909;SDS011;31622;55.416;37.840;2022-10-10T07:17:31;3.55;;;2.10;;
45909;SDS011;31622;55.416;37.840;2022-10-10T07:19:56;4.55;;;2.10;;
45909;SDS011;31622;55.416;37.840;2022-10-10T07:22:23;4.03;;;2.30;;
45909;SDS011;31622;55.416;37.840;2022-10-10T07:24:49;4.85;;;2.10;;
45909;SDS011;31622;55.416;37.840;2022-10-10T07:27:14;5.70;;;2.40;;
45909;SDS011;31622;55.416;37.840;2022-10-10T07:29:40;4.75;;;2.90;;
45909;SDS011;31622;55.416;37.840;2022-10-10T07:32:06;4.25;;;2.00;;
45909;SDS011;31622;55.416;37.840;2022-10-10T07:34:32;3.63;;;2.00;;
45909;SDS011;31622;55.416;37.840;2022-10-10T07:37:00;3.40;;;1.92;;
45909;SDS011;31622;55.416;37.840;2022-10-10T07:39:26;4.43;;;2.13;;
45909;SDS011;31622;55.416;37.840;2022-10-10T07:41:51;3.58;;;1.85;;
45909;SDS011;31622;55.416;37.840;2022-10-10T07:44:17;2.88;;;1.80;;
45909;SDS011;31622;55.416;37.840;2022-10-10T07:46:46;3.53;;;1.75;;
45909;SDS011;31622;55.416;37.840;2022-10-10T07:49:11;2.92;;;1.60;;
45909;SDS011;31622;55.416;37.840;2022-10-10T07:51:37;3.60;;;2.03;;
45909;SDS011;31622;55.416;37.840;2022-10-10T07:54:03;2.63;;;1.58;;
45909;SDS011;31622;55.416;37.840;2022-10-10T07:56:29;3.33;;;1.45;;
45909;SDS011;31622;55.416;37.840;2022-10-10T07:58:55;2.60;;;1.63;;
45909;SDS011;31622;55.416;37.840;2022-10-10T08:01:21;4.15;;;1.30;;
45909;SDS011;31622;55.416;37.840;2022-10-10T08:03:47;3.35;;;1.70;;
45909;SDS011;31622;55.416;37.840;2022-10-10T08:06:14;4.20;;;1.60;;
45909;SDS011;31622;55.416;37.840;2022-10-10T08:08:41;2.95;;;1.60;;
45909;SDS011;31622;55.416;37.840;2022-10-10T08:11:08;2.78;;;1.70;;
45909;SDS011;31622;55.416;37.840;2022-10-10T08:13:35;2.75;;;1.48;;
45909;SDS011;31622;55.416;37.840;2022-10-10T08:16:01;2.42;;;1.40;;
45909;SDS011;31622;55.416;37.840;2022-10-10T08:18:27;1.80;;;1.20;;
45909;SDS011;31622;55.416;37.840;2022-10-10T08:20:59;2.92;;;1.60;;
45909;SDS011;31622;55.416;37.840;2022-10-10T08:23:26;4.05;;;1.58;;
45909;SDS011;31622;55.416;37.840;2022-10-10T08:25:52;2.53;;;1.40;;
45909;SDS011;31622;55.416;37.840;2022-10-10T08:28:18;2.67;;;1.48;;
45909;SDS011;31622;55.416;37.840;2022-10-10T08:30:43;3.08;;;1.70;;
45909;SDS011;31622;55.416;37.840;2022-10-10T08:33:09;6.25;;;1.67;;
45909;SDS011;31622;55.416;37.840;2022-10-10T08:35:38;2.90;;;1.30;;
45909;SDS011;31622;55.416;37.840;2022-10-10T08:38:04;6.40;;;1.40;;
45909;SDS011;31622;55.416;37.840;2022-10-10T08:40:30;4.72;;;1.40;;
45909;SDS011;31622;55.416;37.840;2022-10-10T08:42:56;1.77;;;1.08;;
45909;SDS011;31622;55.416;37.840;2022-10-10T08:45:27;2.08;;;1.17;;
45909;SDS011;31622;55.416;37.840;2022-10-10T08:47:57;2.85;;;1.48;;
45909;SDS011;31622;55.416;37.840;2022-10-10T08:50:26;2.03;;;1.17;;
45909;SDS011;31622;55.416;37.840;2022-10-10T08:53:26;3.90;;;1.30;;
45909;SDS011;31622;55.416;37.840;2022-10-10T08:55:56;2.28;;;1.23;;
45909;SDS011;31622;55.416;37.840;2022-10-10T08:58:38;3.33;;;1.20;;
45909;SDS011;31622;55.416;37.840;2022-10-10T09:03:48;2.97;;;1.00;;
45909;SDS011;31622;55.416;37.840;2022-10-10T09:09:30;4.72;;;1.35;;
45909;SDS011;31622;55.416;37.840;2022-10-10T09:12:52;7.07;;;1.73;;
45909;SDS011;31622;55.416;37.840;2022-10-10T09:17:50;3.75;;;1.30;;
45909;SDS011;31622;55.416;37.840;2022-10-10T09:23:18;3.10;;;1.27;;
45909;SDS011;31622;55.416;37.840;2022-10-10T09:26:11;2.63;;;1.27;;
45909;SDS011;31622;55.416;37.840;2022-10-10T09:29:00;3.92;;;1.27;;
45909;SDS011;31622;55.416;37.840;2022-10-10T09:33:59;5.07;;;1.33;;
45909;SDS011;31622;55.416;37.840;2022-10-10T09:36:35;4.05;;;1.13;;
45909;SDS011;31622;55.416;37.840;2022-10-10T09:41:57;3.42;;;1.02;;
45909;SDS011;31622;55.416;37.840;2022-10-10T09:44:24;4.47;;;1.33;;
45909;SDS011;31622;55.416;37.840;2022-10-10T09:46:50;7.65;;;1.58;;
45909;SDS011;31622;55.416;37.840;2022-10-10T09:49:16;9.82;;;1.83;;
45909;SDS011;31622;55.416;37.840;2022-10-10T09:51:44;2.72;;;1.30;;
45909;SDS011;31622;55.416;37.840;2022-10-10T09:54:10;5.53;;;1.70;;
45909;SDS011;31622;55.416;37.840;2022-10-10T10:04:43;6.68;;;1.52;;
45909;SDS011;31622;55.416;37.840;2022-10-10T10:09:48;3.45;;;1.23;;
45909;SDS011;31622;55.416;37.840;2022-10-10T10:12:15;2.13;;;1.13;;
45909;SDS011;31622;55.416;37.840;2022-10-10T10:14:44;2.50;;;1.20;;
45909;SDS011;31622;55.416;37.840;2022-10-10T10:17:14;3.88;;;1.50;;
45909;SDS011;31622;55.416;37.840;2022-10-10T10:22:44;1.77;;;0.98;;
45909;SDS011;31622;55.416;37.840;2022-10-10T10:28:19;3.70;;;1.30;;
45909;SDS011;31622;55.416;37.840;2022-10-10T10:30:46;3.22;;;1.10;;
45909;SDS011;31622;55.416;37.840;2022-10-10T10:41:44;3.00;;;1.30;;
45909;SDS011;31622;55.416;37.840;2022-10-10T10:55:50;3.70;;;1.13;;
45909;SDS011;31622;55.416;37.840;2022-10-10T10:58:42;4.72;;;1.38;;
45909;SDS011;31622;55.416;37.840;2022-10-10T11:01:26;3.90;;;1.45;;
45909;SDS011;31622;55.416;37.840;2022-10-10T11:04:11;2.30;;;1.00;;
45909;SDS011;31622;55.416;37.840;2022-10-10T11:10:11;3.17;;;1.30;;
45909;SDS011;31622;55.416;37.840;2022-10-10T11:23:01;2.60;;;1.50;;
45909;SDS011;31622;55.416;37.840;2022-10-10T11:25:49;2.05;;;1.20;;
45909;SDS011;31622;55.416;37.840;2022-10-10T11:31:06;2.97;;;1.50;;
45909;SDS011;31622;55.416;37.840;2022-10-10T11:36:04;1.73;;;1.13;;
45909;SDS011;31622;55.416;37.840;2022-10-10T11:41:05;3.03;;;1.45;;
45909;SDS011;31622;55.416;37.840;2022-10-10T11:44:14;2.28;;;1.42;;
45909;SDS011;31622;55.416;37.840;2022-10-10T11:46:44;3.00;;;1.40;;
45909;SDS011;31622;55.416;37.840;2022-10-10T11:49:37;2.78;;;1.25;;
45909;SDS011;31622;55.416;37.840;2022-10-10T11:55:35;1.83;;;1.10;;
45909;SDS011;31622;55.416;37.840;2022-10-10T12:00:51;1.90;;;1.00;;
45909;SDS011;31622;55.416;37.840;2022-10-10T12:03:19;2.30;;;1.33;;
45909;SDS011;31622;55.416;37.840;2022-10-10T12:05:48;2.65;;;1.10;;
45909;SDS011;31622;55.416;37.840;2022-10-10T12:08:27;2.00;;;1.02;;
45909;SDS011;31622;55.416;37.840;2022-10-10T12:11:06;2.47;;;1.00;;
45909;SDS011;31622;55.416;37.840;2022-10-10T12:16:09;2.10;;;0.90;;
45909;SDS011;31622;55.416;37.840;2022-10-10T12:21:08;3.05;;;1.02;;
45909;SDS011;31622;55.416;37.840;2022-10-10T12:23:38;1.98;;;1.20;;
45909;SDS011;31622;55.416;37.840;2022-10-10T12:26:11;2.08;;;1.08;;
45909;SDS011;31622;55.416;37.840;2022-10-10T12:31:28;3.63;;;1.00;;
45909;SDS011;31622;55.416;37.840;2022-10-10T12:46:39;3.72;;;1.00;;
45909;SDS011;31622;55.416;37.840;2022-10-10T12:49:15;2.05;;;1.15;;
45909;SDS011;31622;55.416;37.840;2022-10-10T12:52:25;1.83;;;0.90;;
45909;SDS011;31622;55.416;37.840;2022-10-10T12:54:52;3.78;;;1.52;;
45909;SDS011;31622;55.416;37.840;2022-10-10T13:00:02;2.28;;;1.45;;
45909;SDS011;31622;55.416;37.840;2022-10-10T13:02:52;2.33;;;0.90;;
45909;SDS011;31622;55.416;37.840;2022-10-10T13:05:24;2.45;;;1.20;;
45909;SDS011;31622;55.416;37.840;2022-10-10T13:07:53;2.08;;;1.35;;
45909;SDS011;31622;55.416;37.840;2022-10-10T13:10:24;2.65;;;1.00;;
45909;SDS011;31622;55.416;37.840;2022-10-10T13:15:31;3.42;;;0.98;;
45909;SDS011;31622;55.416;37.840;2022-10-10T13:17:58;1.42;;;0.90;;
45909;SDS011;31622;55.416;37.840;2022-10-10T13:20:32;2.10;;;0.98;;
45909;SDS011;31622;55.416;37.840;2022-10-10T13:23:03;2.35;;;0.90;;
45909;SDS011;31622;55.416;37.840;2022-10-10T13:25:32;4.07;;;1.27;;
45909;SDS011;31622;55.416;37.840;2022-10-10T13:27:59;2.65;;;1.00;;
45909;SDS011;31622;55.416;37.840;2022-10-10T13:30:25;1.83;;;1.10;;
45909;SDS011;31622;55.416;37.840;2022-10-10T13:32:51;5.65;;;0.85;;
45909;SDS011;31622;55.416;37.840;2022-10-10T13:35:22;3.85;;;1.20;;
45909;SDS011;31622;55.416;37.840;2022-10-10T13:37:55;3.15;;;1.30;;
45909;SDS011;31622;55.416;37.840;2022-10-10T13:40:22;3.88;;;1.20;;
45909;SDS011;31622;55.416;37.840;2022-10-10T13:42:48;3.63;;;1.30;;
45909;SDS011;31622;55.416;37.840;2022-10-10T13:47:53;4.60;;;1.52;;
45909;SDS011;31622;55.416;37.840;2022-10-10T13:50:22;4.88;;;1.58;;
45909;SDS011;31622;55.416;37.840;2022-10-10T13:53:20;4.85;;;1.70;;
45909;SDS011;31622;55.416;37.840;2022-10-10T14:04:16;5.70;;;1.73;;
45909;SDS011;31622;55.416;37.840;2022-10-10T14:09:57;3.60;;;1.13;;
45909;SDS011;31622;55.416;37.840;2022-10-10T14:12:52;6.47;;;1.92;;
45909;SDS011;31622;55.416;37.840;2022-10-10T14:20:45;6.28;;;2.00;;
45909;SDS011;31622;55.416;37.840;2022-10-10T14:23:11;7.20;;;1.55;;
45909;SDS011;31622;55.416;37.840;2022-10-10T14:25:41;4.63;;;1.70;;
45909;SDS011;31622;55.416;37.840;2022-10-10T14:28:21;6.40;;;1.83;;
45909;SDS011;31622;55.416;37.840;2022-10-10T14:30:49;5.40;;;2.03;;
45909;SDS011;31622;55.416;37.840;2022-10-10T14:33:15;3.78;;;1.40;;
45909;SDS011;31622;55.416;37.840;2022-10-10T14:35:42;3.33;;;1.70;;
45909;SDS011;31622;55.416;37.840;2022-10-10T14:38:09;6.93;;;2.17;;
45909;SDS011;31622;55.416;37.840;2022-10-10T14:40:35;3.33;;;1.75;;
45909;SDS011;31622;55.416;37.840;2022-10-10T14:43:01;6.28;;;2.03;;
45909;SDS011;31622;55.416;37.840;2022-10-10T14:45:27;3.70;;;1.85;;
45909;SDS011;31622;55.416;37.840;2022-10-10T14:47:53;5.38;;;2.13;;
45909;SDS011;31622;55.416;37.840;2022-10-10T14:50:20;4.22;;;1.70;;
45909;SDS011;31622;55.416;37.840;2022-10-10T14:52:49;4.85;;;2.13;;
45909;SDS011;31622;55.416;37.840;2022-10-10T14:55:15;3.90;;;2.08;;
45909;SDS011;31622;55.416;37.840;2022-10-10T14:57:41;3.83;;;1.83;;
45909;SDS011;31622;55.416;37.840;2022-10-10T15:00:09;4.13;;;2.10;;
45909;SDS011;31622;55.416;37.840;2022-10-10T15:02:37;3.95;;;1.60;;
45909;SDS011;31622;55.416;37.840;2022-10-10T15:05:03;5.03;;;1.92;;
45909;SDS011;31622;55.416;37.840;2022-10-10T15:07:28;4.03;;;1.60;;
45909;SDS011;31622;55.416;37.840;2022-10-10T15:09:54;4.03;;;1.75;;
45909;SDS011;31622;55.416;37.840;2022-10-10T15:12:20;3.20;;;1.50;;
45909;SDS011;31622;55.416;37.840;2022-10-10T15:14:45;6.95;;;1.88;;
45909;SDS011;31622;55.416;37.840;2022-10-10T15:17:11;2.83;;;1.63;;
45909;SDS011;31622;55.416;37.840;2022-10-10T15:19:37;3.17;;;1.50;;
45909;SDS011;31622;55.416;37.840;2022-10-10T15:22:04;5.10;;;1.67;;
45909;SDS011;31622;55.416;37.840;2022-10-10T15:24:31;3.13;;;1.70;;
45909;SDS011;31622;55.416;37.840;2022-10-10T15:26:57;4.30;;;1.70;;
45909;SDS011;31622;55.416;37.840;2022-10-10T15:29:23;4.50;;;2.10;;
45909;SDS011;31622;55.416;37.840;2022-10-10T15:31:48;3.65;;;2.00;;
45909;SDS011;31622;55.416;37.840;2022-10-10T15:34:14;4.65;;;2.03;;
45909;SDS011;31622;55.416;37.840;2022-10-10T15:36:43;5.60;;;1.98;;
45909;SDS011;31622;55.416;37.840;2022-10-10T15:39:09;2.88;;;1.77;;
45909;SDS011;31622;55.416;37.840;2022-10-10T15:41:35;3.22;;;1.60;;
45909;SDS011;31622;55.416;37.840;2022-10-10T15:44:01;3.92;;;1.95;;
45909;SDS011;31622;55.416;37.840;2022-10-10T15:46:27;3.97;;;1.67;;
45909;SDS011;31622;55.416;37.840;2022-10-10T15:48:56;3.38;;;1.70;;
45909;SDS011;31622;55.416;37.840;2022-10-10T15:51:24;4.90;;;1.90;;
45909;SDS011;31622;55.416;37.840;2022-10-10T15:53:50;4.15;;;1.92;;
45909;SDS011;31622;55.416;37.840;2022-10-10T15:56:16;4.47;;;1.50;;
45909;SDS011;31622;55.416;37.840;2022-10-10T15:58:42;3.08;;;1.75;;
45909;SDS011;31622;55.416;37.840;2022-10-10T16:01:09;3.70;;;1.80;;
45909;SDS011;31622;55.416;37.840;2022-10-10T16:03:36;4.30;;;1.70;;
45909;SDS011;31622;55.416;37.840;2022-10-10T16:06:02;3.25;;;1.60;;
45909;SDS011;31622;55.416;37.840;2022-10-10T16:08:28;4.88;;;1.80;;
45909;SDS011;31622;55.416;37.840;2022-10-10T16:10:53;3.03;;;1.60;;
45909;SDS011;31622;55.416;37.840;2022-10-10T16:13:19;2.63;;;1.67;;
45909;SDS011;31622;55.416;37.840;2022-10-10T16:15:54;2.95;;;1.60;;
45909;SDS011;31622;55.416;37.840;2022-10-10T16:18:21;3.13;;;1.80;;
45909;SDS011;31622;55.416;37.840;2022-10-10T16:20:47;3.90;;;1.40;;
45909;SDS011;31622;55.416;37.840;2022-10-10T16:23:13;6.07;;;2.13;;
45909;SDS011;31622;55.416;37.840;2022-10-10T16:25:39;4.78;;;1.80;;
45909;SDS011;31622;55.416;37.840;2022-10-10T16:28:04;2.45;;;1.55;;
45909;SDS011;31622;55.416;37.840;2022-10-10T16:30:30;4.45;;;1.65;;
45909;SDS011;31622;55.416;37.840;2022-10-10T16:32:55;4.38;;;2.38;;
45909;SDS011;31622;55.416;37.840;2022-10-10T16:35:23;5.93;;;3.45;;
45909;SDS011;31622;55.416;37.840;2022-10-10T16:37:49;7.82;;;4.00;;
45909;SDS011;31622;55.416;37.840;2022-10-10T16:40:14;9.27;;;4.45;;
45909;SDS011;31622;55.416;37.840;2022-10-10T16:42:40;9.05;;;5.07;;
45909;SDS011;31622;55.416;37.840;2022-10-10T16:45:06;9.52;;;5.43;;
45909;SDS011;31622;55.416;37.840;2022-10-10T16:47:32;9.65;;;5.97;;
45909;SDS011;31622;55.416;37.840;2022-10-10T16:49:58;11.35;;;6.28;;
45909;SDS011;31622;55.416;37.840;2022-10-10T16:52:23;9.88;;;5.85;;
45909;SDS011;31622;55.416;37.840;2022-10-10T16:54:49;9.93;;;6.00;;
45909;SDS011;31622;55.416;37.840;2022-10-10T16:57:15;8.88;;;6.03;;
45909;SDS011;31622;55.416;37.840;2022-10-10T16:59:40;9.75;;;6.07;;
45909;SDS011;31622;55.416;37.840;2022-10-10T17:02:07;7.95;;;5.47;;
45909;SDS011;31622;55.416;37.840;2022-10-10T17:04:35;8.18;;;5.57;;
45909;SDS011;31622;55.416;37.840;2022-10-10T17:07:01;8.15;;;5.68;;
45909;SDS011;31622;55.416;37.840;2022-10-10T17:09:26;10.88;;;6.05;;
45909;SDS011;31622;55.416;37.840;2022-10-10T17:11:52;11.02;;;6.10;;
45909;SDS011;31622;55.416;37.840;2022-10-10T17:14:18;8.27;;;5.53;;
45909;SDS011;31622;55.416;37.840;2022-10-10T17:16:44;9.23;;;5.10;;
45909;SDS011;31622;55.416;37.840;2022-10-10T17:19:10;7.22;;;4.70;;
45909;SDS011;31622;55.416;37.840;2022-10-10T17:21:35;8.65;;;4.47;;
45909;SDS011;31622;55.416;37.840;2022-10-10T17:24:01;7.90;;;5.10;;
45909;SDS011;31622;55.416;37.840;2022-10-10T17:26:27;7.15;;;5.22;;
45909;SDS011;31622;55.416;37.840;2022-10-10T17:28:53;10.35;;;4.85;;